createdAt,value
2023-03-27T00:00:01.474Z,98116.09
2023-03-27T00:01:03.347Z,98106.34
2023-03-27T00:02:06.339Z,98101.59
2023-03-27T00:03:10.212Z,98097.00
2023-03-27T00:04:13.260Z,98090.16
2023-03-27T00:05:20.864Z,98091.59
2023-03-27T00:06:24.867Z,98093.69
2023-03-27T00:07:27.331Z,98092.84
2023-03-27T00:08:29.990Z,98095.31
2023-03-27T00:09:32.726Z,98091.25
2023-03-27T00:10:34.838Z,98088.03
2023-03-27T00:11:37.030Z,98083.38
2023-03-27T00:12:39.295Z,98077.09
2023-03-27T00:13:48.895Z,98082.03
2023-03-27T00:14:52.643Z,98082.81
2023-03-27T00:15:57.051Z,98082.59
2023-03-27T00:17:00.274Z,98080.03
2023-03-27T00:18:04.227Z,98081.06
2023-03-27T00:19:06.571Z,98069.28
2023-03-27T00:20:08.739Z,98074.75
2023-03-27T00:21:10.610Z,98076.06
2023-03-27T00:22:12.877Z,98075.50
2023-03-27T00:23:15.372Z,98074.16
2023-03-27T00:24:17.310Z,98068.44
2023-03-27T00:25:19.809Z,98065.03
2023-03-27T00:26:22.139Z,98065.72
2023-03-27T00:27:25.111Z,98065.97
2023-03-27T00:28:29.373Z,98067.78
2023-03-27T00:29:31.311Z,98064.66
2023-03-27T00:30:33.717Z,98065.41
2023-03-27T00:31:35.714Z,98062.78
2023-03-27T00:32:37.614Z,98063.72
2023-03-27T00:33:40.811Z,98052.59
2023-03-27T00:34:42.655Z,98055.53
2023-03-27T00:35:46.836Z,98051.63
2023-03-27T00:36:51.222Z,98047.66
2023-03-27T00:37:53.870Z,98051.88
2023-03-27T00:38:56.097Z,98043.28
2023-03-27T00:39:58.281Z,98049.81
2023-03-27T00:41:00.580Z,98042.00
2023-03-27T00:42:03.440Z,98042.78
2023-03-27T00:43:29.099Z,98049.06
2023-03-27T00:44:35.522Z,98045.91
2023-03-27T00:45:38.582Z,98038.09
2023-03-27T00:46:45.221Z,98040.00
2023-03-27T00:47:54.223Z,98037.38
2023-03-27T00:49:01.551Z,98036.25
2023-03-27T00:50:08.834Z,98030.97
2023-03-27T00:51:10.850Z,98025.25
2023-03-27T00:52:13.694Z,98023.22
2023-03-27T00:53:22.575Z,98022.69
2023-03-27T00:54:30.024Z,98024.31
2023-03-27T00:55:36.376Z,98024.84
2023-03-27T00:56:38.934Z,98021.44
2023-03-27T00:57:44.675Z,98017.00
2023-03-27T00:58:56.903Z,98021.09
2023-03-27T01:00:02.291Z,98021.09
2023-03-27T01:01:07.944Z,98016.94
2023-03-27T01:02:10.203Z,98015.56
2023-03-27T01:03:12.521Z,98013.75
2023-03-27T01:04:14.694Z,98015.22
2023-03-27T01:05:20.031Z,98010.53
2023-03-27T01:06:23.455Z,98008.44
2023-03-27T01:07:25.848Z,98003.25
2023-03-27T01:08:30.676Z,97998.81
2023-03-27T01:09:33.536Z,98000.38
2023-03-27T01:10:53.808Z,97996.50
2023-03-27T01:11:56.123Z,97993.34
2023-03-27T01:13:33.333Z,97992.09
2023-03-27T01:15:20.207Z,97988.97
2023-03-27T01:16:40.962Z,97986.94
2023-03-27T01:17:57.847Z,97979.84
2023-03-27T01:19:11.661Z,97979.31
2023-03-27T01:20:32.566Z,97979.31
2023-03-27T01:21:48.192Z,97966.53
2023-03-27T01:23:06.242Z,97969.94
2023-03-27T01:24:42.577Z,97959.22
2023-03-27T01:26:00.711Z,97959.22
2023-03-27T01:27:11.136Z,97965.75
2023-03-27T01:28:29.052Z,97957.72
2023-03-27T01:29:48.376Z,97957.16
2023-03-27T01:30:52.464Z,97961.00
2023-03-27T01:32:02.100Z,97950.28
2023-03-27T01:33:28.385Z,97946.91
2023-03-27T01:35:01.826Z,97953.47
2023-03-27T01:36:11.650Z,97951.09
2023-03-27T01:37:42.284Z,97950.56
2023-03-27T01:39:11.631Z,97952.84
2023-03-27T01:40:21.787Z,97949.78
2023-03-27T01:41:26.851Z,97952.59
2023-03-27T01:42:35.085Z,97950.00
2023-03-27T01:43:46.073Z,97952.06
2023-03-27T01:45:09.530Z,97949.22
2023-03-27T01:46:27.006Z,97948.44
2023-03-27T01:47:36.990Z,97948.91
2023-03-27T01:48:44.812Z,97943.94
2023-03-27T01:49:57.273Z,97937.06
2023-03-27T01:51:09.866Z,97946.69
2023-03-27T01:52:21.104Z,97947.22
2023-03-27T01:53:28.830Z,97942.00
2023-03-27T01:54:36.009Z,97939.47
2023-03-27T01:55:44.324Z,97944.13
2023-03-27T01:56:54.607Z,97943.84
2023-03-27T01:58:07.553Z,97941.78
2023-03-27T01:59:18.885Z,97945.16
2023-03-27T02:00:24.351Z,97942.03
2023-03-27T02:01:42.264Z,97945.19
2023-03-27T02:03:08.040Z,97942.59
2023-03-27T02:04:20.677Z,97941.84
2023-03-27T02:05:28.724Z,97936.91
2023-03-27T02:06:37.903Z,97933.22
2023-03-27T02:07:47.484Z,97930.56
2023-03-27T02:09:06.925Z,97932.97
2023-03-27T02:10:15.454Z,97930.09
2023-03-27T02:11:18.191Z,97921.78
2023-03-27T02:12:32.071Z,97915.00
2023-03-27T02:13:52.252Z,97918.63
2023-03-27T02:15:23.628Z,97916.50
2023-03-27T02:16:34.348Z,97923.56
2023-03-27T02:17:43.185Z,97914.94
2023-03-27T02:18:54.383Z,97918.63
2023-03-27T02:20:16.322Z,97922.03
2023-03-27T02:21:18.529Z,97913.16
2023-03-27T02:22:20.898Z,97913.44
2023-03-27T02:23:40.581Z,97909.81
2023-03-27T02:24:46.351Z,97917.12
2023-03-27T02:25:48.549Z,97915.78
2023-03-27T02:26:59.803Z,97916.28
2023-03-27T02:28:15.476Z,97909.78
2023-03-27T02:29:36.312Z,97912.41
2023-03-27T02:31:32.170Z,97911.88
2023-03-27T02:33:14.916Z,97912.34
2023-03-27T02:34:26.498Z,97910.75
2023-03-27T02:35:57.247Z,97906.78
2023-03-27T02:37:32.357Z,97904.63
2023-03-27T02:38:45.208Z,97905.59
2023-03-27T02:40:18.769Z,97905.13
2023-03-27T02:41:36.522Z,97893.41
2023-03-27T02:42:46.433Z,97892.88
2023-03-27T02:44:06.372Z,97877.72
2023-03-27T02:45:26.637Z,97876.09
2023-03-27T02:46:42.926Z,97867.75
2023-03-27T02:48:08.428Z,97866.97
2023-03-27T02:49:17.341Z,97860.75
2023-03-27T02:50:26.507Z,97851.66
2023-03-27T02:51:40.421Z,97845.91
2023-03-27T02:52:48.065Z,97842.28
2023-03-27T02:53:59.462Z,97839.16
2023-03-27T02:55:06.874Z,97845.47
2023-03-27T02:56:12.003Z,97846.44
2023-03-27T02:57:20.539Z,97843.06
2023-03-27T02:58:30.718Z,97846.78
2023-03-27T02:59:39.444Z,97848.09
2023-03-27T03:00:48.981Z,97844.97
2023-03-27T03:01:53.011Z,97848.62
2023-03-27T03:03:09.098Z,97842.34
2023-03-27T03:04:24.558Z,97846.03
2023-03-27T03:05:28.508Z,97839.69
2023-03-27T03:06:30.846Z,97840.78
2023-03-27T03:07:34.779Z,97837.66
2023-03-27T03:08:41.077Z,97837.09
2023-03-27T03:09:44.605Z,97837.59
2023-03-27T03:10:47.719Z,97829.19
2023-03-27T03:11:52.621Z,97825.09
2023-03-27T03:12:55.018Z,97829.81
2023-03-27T03:13:57.361Z,97831.88
2023-03-27T03:14:59.278Z,97822.47
2023-03-27T03:16:01.239Z,97817.75
2023-03-27T03:17:03.514Z,97828.22
2023-03-27T03:18:07.273Z,97821.34
2023-03-27T03:19:09.353Z,97825.06
2023-03-27T03:20:13.036Z,97826.91
2023-03-27T03:21:15.385Z,97827.19
2023-03-27T03:22:17.276Z,97820.94
2023-03-27T03:23:22.561Z,97826.44
2023-03-27T03:24:25.026Z,97826.16
2023-03-27T03:25:27.040Z,97824.03
2023-03-27T03:26:30.064Z,97822.47
2023-03-27T03:27:34.122Z,97822.41
2023-03-27T03:28:36.722Z,97820.13
2023-03-27T03:29:38.584Z,97824.59
2023-03-27T03:30:43.369Z,97829.06
2023-03-27T03:31:45.779Z,97819.91
2023-03-27T03:32:47.840Z,97823.03
2023-03-27T03:33:50.653Z,97819.38
2023-03-27T03:34:52.657Z,97819.38
2023-03-27T03:35:54.896Z,97814.16
2023-03-27T03:36:58.175Z,97822.72
2023-03-27T03:38:03.886Z,97816.22
2023-03-27T03:39:09.966Z,97820.28
2023-03-27T03:40:12.153Z,97816.66
2023-03-27T03:41:14.597Z,97820.28
2023-03-27T03:42:22.354Z,97820.38
2023-03-27T03:43:28.154Z,97819.47
2023-03-27T03:44:32.876Z,97818.19
2023-03-27T03:45:35.370Z,97812.22
2023-03-27T03:46:37.301Z,97817.69
2023-03-27T03:47:39.343Z,97808.84
2023-03-27T03:48:41.616Z,97818.97
2023-03-27T03:49:43.869Z,97805.16
2023-03-27T03:50:47.075Z,97812.97
2023-03-27T03:52:03.765Z,97809.06
2023-03-27T03:53:07.242Z,97804.13
2023-03-27T03:54:09.387Z,97807.69
2023-03-27T03:55:12.159Z,97806.66
2023-03-27T03:56:15.068Z,97804.13
2023-03-27T03:57:18.499Z,97799.38
2023-03-27T03:58:34.604Z,97806.44
2023-03-27T03:59:39.211Z,97800.41
2023-03-27T04:00:43.780Z,97797.03
2023-03-27T04:01:46.622Z,97801.22
2023-03-27T04:02:58.146Z,97796.31
2023-03-27T04:04:00.292Z,97798.16
2023-03-27T04:05:09.094Z,97792.63
2023-03-27T04:06:14.093Z,97796.53
2023-03-27T04:07:17.735Z,97790.28
2023-03-27T04:08:20.245Z,97793.44
2023-03-27T04:09:22.562Z,97803.56
2023-03-27T04:10:26.897Z,97790.75
2023-03-27T04:11:29.000Z,97796.47
2023-03-27T04:12:32.551Z,97793.53
2023-03-27T04:13:34.769Z,97794.91
2023-03-27T04:14:45.276Z,97789.97
2023-03-27T04:15:48.565Z,97797.28
2023-03-27T04:16:50.837Z,97791.94
2023-03-27T04:17:53.824Z,97801.84
2023-03-27T04:18:55.877Z,97798.63
2023-03-27T04:19:58.077Z,97797.09
2023-03-27T04:21:00.123Z,97797.66
2023-03-27T04:22:02.598Z,97803.59
2023-03-27T04:23:05.640Z,97801.50
2023-03-27T04:24:09.753Z,97796.28
2023-03-27T04:25:17.447Z,97808.06
2023-03-27T04:26:26.405Z,97807.25
2023-03-27T04:27:37.695Z,97805.69
2023-03-27T04:28:42.180Z,97812.28
2023-03-27T04:29:47.376Z,97802.53
2023-03-27T04:31:06.487Z,97803.59
2023-03-27T04:32:19.268Z,97808.81
2023-03-27T04:33:24.261Z,97795.25
2023-03-27T04:34:27.662Z,97800.94
2023-03-27T04:35:37.262Z,97800.41
2023-03-27T04:36:39.774Z,97797.97
2023-03-27T04:37:43.048Z,97798.56
2023-03-27T04:38:45.698Z,97800.41
2023-03-27T04:39:49.834Z,97802.50
2023-03-27T04:40:54.700Z,97796.25
2023-03-27T04:41:58.379Z,97796.22
2023-03-27T04:43:05.321Z,97798.34
2023-03-27T04:44:07.541Z,97804.63
2023-03-27T04:45:17.314Z,97802.00
2023-03-27T04:46:20.171Z,97798.34
2023-03-27T04:47:28.200Z,97795.75
2023-03-27T04:48:34.520Z,97795.72
2023-03-27T04:49:40.694Z,97793.19
2023-03-27T04:50:49.307Z,97790.56
2023-03-27T04:51:56.830Z,97793.44
2023-03-27T04:53:03.088Z,97789.34
2023-03-27T04:54:09.036Z,97780.97
2023-03-27T04:55:16.800Z,97785.06
2023-03-27T04:56:22.899Z,97781.66
2023-03-27T04:57:30.974Z,97784.25
2023-03-27T04:58:35.959Z,97775.91
2023-03-27T04:59:42.140Z,97782.16
2023-03-27T05:00:50.322Z,97781.63
2023-03-27T05:01:55.428Z,97780.09
2023-03-27T05:02:57.751Z,97779.00
2023-03-27T05:04:02.508Z,97775.34
2023-03-27T05:05:05.880Z,97781.16
2023-03-27T05:06:08.572Z,97768.78
2023-03-27T05:07:12.352Z,97772.22
2023-03-27T05:08:14.341Z,97775.09
2023-03-27T05:09:17.979Z,97769.63
2023-03-27T05:10:21.843Z,97768.56
2023-03-27T05:11:24.539Z,97769.63
2023-03-27T05:12:27.972Z,97762.25
2023-03-27T05:13:31.586Z,97758.63
2023-03-27T05:14:33.746Z,97760.94
2023-03-27T05:15:35.657Z,97755.97
2023-03-27T05:16:38.452Z,97752.37
2023-03-27T05:17:43.192Z,97755.50
2023-03-27T05:18:45.232Z,97754.22
2023-03-27T05:19:47.226Z,97751.31
2023-03-27T05:20:50.107Z,97754.47
2023-03-27T05:21:52.572Z,97750.78
2023-03-27T05:22:56.385Z,97752.81
2023-03-27T05:23:58.804Z,97749.91
2023-03-27T05:25:01.574Z,97758.38
2023-03-27T05:26:03.687Z,97753.94
2023-03-27T05:27:17.297Z,97758.09
2023-03-27T05:28:20.908Z,97749.72
2023-03-27T05:29:22.837Z,97747.88
2023-03-27T05:30:30.629Z,97744.09
2023-03-27T05:31:35.066Z,97739.56
2023-03-27T05:32:38.706Z,97747.66
2023-03-27T05:33:41.757Z,97744.63
2023-03-27T05:34:45.928Z,97746.25
2023-03-27T05:35:52.571Z,97740.56
2023-03-27T05:36:55.732Z,97750.50
2023-03-27T05:37:59.080Z,97752.31
2023-03-27T05:39:04.622Z,97739.53
2023-03-27T05:40:07.886Z,97748.38
2023-03-27T05:41:10.354Z,97749.97
2023-03-27T05:42:16.834Z,97748.88
2023-03-27T05:43:18.722Z,97747.56
2023-03-27T05:44:21.287Z,97747.28
2023-03-27T05:45:24.225Z,97746.78
2023-03-27T05:46:26.174Z,97743.66
2023-03-27T05:47:28.723Z,97748.59
2023-03-27T05:48:31.033Z,97746.53
2023-03-27T05:49:34.325Z,97740.28
2023-03-27T05:50:41.687Z,97744.19
2023-03-27T05:51:47.884Z,97738.41
2023-03-27T05:52:58.327Z,97730.06
2023-03-27T05:54:02.021Z,97737.63
2023-03-27T05:55:08.233Z,97736.34
2023-03-27T05:56:13.212Z,97727.91
2023-03-27T05:57:17.090Z,97734.44
2023-03-27T05:58:19.214Z,97728.44
2023-03-27T05:59:22.100Z,97735.47
2023-03-27T06:00:26.545Z,97726.31
2023-03-27T06:01:29.230Z,97726.16
2023-03-27T06:02:31.760Z,97728.47
2023-03-27T06:03:38.514Z,97731.00
2023-03-27T06:04:41.517Z,97729.75
2023-03-27T06:05:47.079Z,97724.28
2023-03-27T06:06:49.883Z,97721.66
2023-03-27T06:07:52.314Z,97718.81
2023-03-27T06:08:54.332Z,97722.44
2023-03-27T06:09:57.106Z,97721.09
2023-03-27T06:11:11.458Z,97725.03
2023-03-27T06:12:16.217Z,97722.91
2023-03-27T06:13:18.636Z,97716.88
2023-03-27T06:14:24.245Z,97716.63
2023-03-27T06:15:30.289Z,97724.66
2023-03-27T06:16:34.335Z,97712.19
2023-03-27T06:17:42.408Z,97713.22
2023-03-27T06:18:44.377Z,97717.91
2023-03-27T06:19:47.093Z,97720.53
2023-03-27T06:20:50.123Z,97715.34
2023-03-27T06:21:52.360Z,97715.28
2023-03-27T06:22:57.577Z,97709.59
2023-03-27T06:24:00.868Z,97723.09
2023-03-27T06:25:05.852Z,97716.09
2023-03-27T06:26:09.364Z,97712.16
2023-03-27T06:27:11.235Z,97718.41
2023-03-27T06:28:14.932Z,97714.19
2023-03-27T06:29:18.303Z,97721.69
2023-03-27T06:30:23.014Z,97722.25
2023-03-27T06:31:30.733Z,97714.19
2023-03-27T06:32:37.106Z,97716.03
2023-03-27T06:33:42.714Z,97717.81
2023-03-27T06:34:50.837Z,97713.94
2023-03-27T06:36:00.845Z,97713.72
2023-03-27T06:37:03.677Z,97716.81
2023-03-27T06:38:09.578Z,97709.03
2023-03-27T06:39:13.517Z,97713.00
2023-03-27T06:40:25.004Z,97714.03
2023-03-27T06:41:27.122Z,97709.09
2023-03-27T06:42:33.401Z,97702.00
2023-03-27T06:43:35.532Z,97700.44
2023-03-27T06:44:41.542Z,97702.53
2023-03-27T06:45:46.641Z,97701.44
2023-03-27T06:46:50.612Z,97711.28
2023-03-27T06:48:13.824Z,97707.13
2023-03-27T06:49:22.190Z,97707.72
2023-03-27T06:50:26.201Z,97706.87
2023-03-27T06:51:28.943Z,97706.63
2023-03-27T06:52:31.229Z,97705.56
2023-03-27T06:53:37.460Z,97703.25
2023-03-27T06:54:40.453Z,97705.88
2023-03-27T06:55:43.719Z,97706.41
2023-03-27T06:56:46.565Z,97712.09
2023-03-27T06:57:51.495Z,97700.16
2023-03-27T06:58:53.569Z,97702.19
2023-03-27T06:59:59.075Z,97709.78
2023-03-27T07:01:13.427Z,97704.78
2023-03-27T07:02:20.112Z,97705.81
2023-03-27T07:03:23.340Z,97697.97
2023-03-27T07:04:28.263Z,97711.03
2023-03-27T07:05:36.775Z,97704.53
2023-03-27T07:06:39.713Z,97696.53
2023-03-27T07:07:43.050Z,97693.38
2023-03-27T07:08:47.771Z,97699.63
2023-03-27T07:09:51.461Z,97702.25
2023-03-27T07:11:59.987Z,97710.28
2023-03-27T07:13:02.173Z,97705.88
2023-03-27T07:14:04.127Z,97699.06
2023-03-27T07:15:07.900Z,97701.22
2023-03-27T07:16:12.463Z,97701.47
2023-03-27T07:17:14.824Z,97702.78
2023-03-27T07:18:17.602Z,97699.19
2023-03-27T07:19:23.243Z,97703.34
2023-03-27T07:20:30.981Z,97708.53
2023-03-27T07:21:33.568Z,97708.75
2023-03-27T07:22:36.156Z,97710.12
2023-03-27T07:23:38.795Z,97714.03
2023-03-27T07:24:41.493Z,97708.78
2023-03-27T07:25:43.808Z,97715.25
2023-03-27T07:26:46.911Z,97712.41
2023-03-27T07:27:49.064Z,97714.81
2023-03-27T07:28:51.786Z,97725.25
2023-03-27T07:29:54.423Z,97719.19
2023-03-27T07:30:56.742Z,97727.84
2023-03-27T07:32:01.517Z,97722.63
2023-03-27T07:33:09.479Z,97721.06
2023-03-27T07:34:11.953Z,97720.50
2023-03-27T07:35:20.747Z,97721.31
2023-03-27T07:36:26.558Z,97720.81
2023-03-27T07:37:29.138Z,97723.47
2023-03-27T07:38:33.237Z,97723.69
2023-03-27T07:39:36.623Z,97718.22
2023-03-27T07:40:40.467Z,97724.41
2023-03-27T07:41:43.666Z,97714.53
2023-03-27T07:42:49.223Z,97715.22
2023-03-27T07:43:51.446Z,97721.00
2023-03-27T07:44:57.414Z,97724.91
2023-03-27T07:45:59.707Z,97720.47
2023-03-27T07:47:02.134Z,97718.41
2023-03-27T07:48:11.763Z,97727.84
2023-03-27T07:49:14.169Z,97720.00
2023-03-27T07:50:19.085Z,97723.69
2023-03-27T07:51:22.700Z,97728.31
2023-03-27T07:52:25.016Z,97727.06
2023-03-27T07:53:32.819Z,97720.53
2023-03-27T07:54:38.426Z,97729.66
2023-03-27T07:55:42.007Z,97728.84
2023-03-27T07:56:45.029Z,97736.13
2023-03-27T07:57:59.776Z,97739.00
2023-03-27T07:59:04.201Z,97737.72
2023-03-27T08:00:14.879Z,97735.63
2023-03-27T08:01:18.221Z,97729.34
2023-03-27T08:02:20.774Z,97720.78
2023-03-27T08:03:26.114Z,97716.63
2023-03-27T08:04:28.607Z,97721.09
2023-03-27T08:05:31.118Z,97722.69
2023-03-27T08:06:38.643Z,97719.75
2023-03-27T08:07:45.432Z,97721.06
2023-03-27T08:08:48.142Z,97731.44
2023-03-27T08:09:50.488Z,97729.87
2023-03-27T08:10:55.479Z,97725.13
2023-03-27T08:11:58.658Z,97723.09
2023-03-27T08:13:01.401Z,97722.06
2023-03-27T08:14:03.820Z,97726.12
2023-03-27T08:15:07.250Z,97715.19
2023-03-27T08:16:11.947Z,97718.06
2023-03-27T08:17:16.215Z,97713.91
2023-03-27T08:18:19.692Z,97724.41
2023-03-27T08:19:22.140Z,97724.69
2023-03-27T08:20:24.906Z,97716.56
2023-03-27T08:21:26.900Z,97720.00
2023-03-27T08:22:29.598Z,97718.41
2023-03-27T08:23:40.644Z,97723.69
2023-03-27T08:24:51.422Z,97725.22
2023-03-27T08:26:00.480Z,97731.72
2023-03-27T08:27:03.919Z,97729.37
2023-03-27T08:28:06.260Z,97734.06
2023-03-27T08:29:09.254Z,97737.47
2023-03-27T08:30:16.542Z,97735.16
2023-03-27T08:31:19.641Z,97738.75
2023-03-27T08:32:21.843Z,97738.72
2023-03-27T08:33:27.555Z,97740.03
2023-03-27T08:34:30.703Z,97741.56
2023-03-27T08:35:32.929Z,97739.78
2023-03-27T08:36:36.004Z,97734.56
2023-03-27T08:37:38.562Z,97741.62
2023-03-27T08:38:43.258Z,97738.97
2023-03-27T08:39:48.957Z,97737.19
2023-03-27T08:40:54.004Z,97740.00
2023-03-27T08:42:03.088Z,97742.63
2023-03-27T08:43:09.260Z,97740.81
2023-03-27T08:44:14.962Z,97740.25
2023-03-27T08:45:43.654Z,97745.25
2023-03-27T08:46:52.348Z,97752.81
2023-03-27T08:48:04.413Z,97743.41
2023-03-27T08:49:15.101Z,97747.88
2023-03-27T08:50:28.204Z,97747.94
2023-03-27T08:51:41.791Z,97745.56
2023-03-27T08:52:46.459Z,97750.00
2023-03-27T08:53:57.054Z,97755.16
2023-03-27T08:55:14.533Z,97752.34
2023-03-27T08:56:20.703Z,97756.44
2023-03-27T08:57:24.794Z,97756.97
2023-03-27T08:58:28.577Z,97760.16
2023-03-27T08:59:31.686Z,97758.72
2023-03-27T09:00:40.660Z,97763.13
2023-03-27T09:01:56.542Z,97776.69
2023-03-27T09:03:12.082Z,97770.19
2023-03-27T09:04:19.953Z,97767.34
2023-03-27T09:05:40.600Z,97776.69
2023-03-27T09:07:09.489Z,97769.38
2023-03-27T09:08:32.174Z,97777.78
2023-03-27T09:09:45.155Z,97772.00
2023-03-27T09:10:55.329Z,97771.50
2023-03-27T09:12:11.684Z,97769.63
2023-03-27T09:13:29.042Z,97769.94
2023-03-27T09:14:41.163Z,97773.25
2023-03-27T09:16:00.574Z,97778.22
2023-03-27T09:17:16.169Z,97783.44
2023-03-27T09:18:27.946Z,97777.06
2023-03-27T09:19:56.918Z,97782.16
2023-03-27T09:21:05.884Z,97777.22
2023-03-27T09:22:20.871Z,97781.91
2023-03-27T09:23:38.348Z,97778.75
2023-03-27T09:24:47.241Z,97785.34
2023-03-27T09:25:56.051Z,97785.06
2023-03-27T09:27:20.228Z,97785.84
2023-03-27T09:28:30.961Z,97787.50
2023-03-27T09:29:39.540Z,97787.41
2023-03-27T09:30:42.489Z,97783.75
2023-03-27T09:31:52.200Z,97789.22
2023-03-27T09:32:58.455Z,97783.50
2023-03-27T09:34:05.693Z,97789.47
2023-03-27T09:35:18.033Z,97790.78
2023-03-27T09:36:21.829Z,97787.97
2023-03-27T09:37:23.717Z,97790.84
2023-03-27T09:38:34.962Z,97795.69
2023-03-27T09:39:41.838Z,97799.09
2023-03-27T09:40:49.743Z,97788.47
2023-03-27T09:41:57.506Z,97791.13
2023-03-27T09:43:17.615Z,97785.09
2023-03-27T09:44:40.045Z,97798.37
2023-03-27T09:45:44.445Z,97794.00
2023-03-27T09:46:49.752Z,97796.88
2023-03-27T09:48:01.388Z,97803.81
2023-03-27T09:49:18.534Z,97802.59
2023-03-27T09:50:32.657Z,97805.69
2023-03-27T09:51:44.097Z,97805.75
2023-03-27T09:52:46.904Z,97806.31
2023-03-27T09:53:59.344Z,97805.87
2023-03-27T09:55:02.972Z,97810.88
2023-03-27T09:56:13.193Z,97809.59
2023-03-27T09:57:17.881Z,97814.75
2023-03-27T09:58:28.538Z,97810.59
2023-03-27T09:59:33.511Z,97816.34
2023-03-27T10:00:36.947Z,97819.63
2023-03-27T10:01:48.242Z,97825.97
2023-03-27T10:03:00.535Z,97815.84
2023-03-27T10:04:13.110Z,97819.72
2023-03-27T10:05:20.032Z,97815.66
2023-03-27T10:06:32.601Z,97823.44
2023-03-27T10:07:35.190Z,97822.81
2023-03-27T10:08:50.392Z,97818.31
2023-03-27T10:10:15.496Z,97812.75
2023-03-27T10:11:24.075Z,97820.41
2023-03-27T10:12:27.244Z,97824.03
2023-03-27T10:13:29.561Z,97823.53
2023-03-27T10:14:40.922Z,97822.41
2023-03-27T10:15:43.417Z,97820.53
2023-03-27T10:16:47.732Z,97823.97
2023-03-27T10:17:50.375Z,97827.31
2023-03-27T10:18:55.727Z,97826.63
2023-03-27T10:20:14.314Z,97829.94
2023-03-27T10:21:33.110Z,97823.19
2023-03-27T10:22:38.589Z,97824.22
2023-03-27T10:23:49.979Z,97830.75
2023-03-27T10:24:53.620Z,97829.91
2023-03-27T10:26:01.544Z,97826.59
2023-03-27T10:27:09.736Z,97829.44
2023-03-27T10:28:17.484Z,97836.16
2023-03-27T10:29:32.331Z,97832.81
2023-03-27T10:30:38.009Z,97832.19
2023-03-27T10:31:50.359Z,97837.31
2023-03-27T10:32:52.936Z,97832.25
2023-03-27T10:34:01.001Z,97836.91
2023-03-27T10:35:05.495Z,97830.63
2023-03-27T10:36:11.924Z,97836.94
2023-03-27T10:37:27.416Z,97838.22
2023-03-27T10:38:33.345Z,97843.56
2023-03-27T10:39:35.898Z,97839.56
2023-03-27T10:40:40.619Z,97844.00
2023-03-27T10:41:48.234Z,97843.25
2023-03-27T10:42:50.848Z,97836.72
2023-03-27T10:43:53.605Z,97844.31
2023-03-27T10:44:57.602Z,97843.75
2023-03-27T10:46:22.378Z,97836.91
2023-03-27T10:47:30.286Z,97836.91
2023-03-27T10:48:47.731Z,97843.94
2023-03-27T10:50:24.233Z,97846.09
2023-03-27T10:51:45.650Z,97843.91
2023-03-27T10:52:55.373Z,97848.66
2023-03-27T10:54:32.293Z,97838.38
2023-03-27T10:55:41.475Z,97841.72
2023-03-27T10:57:12.504Z,97839.97
2023-03-27T10:58:39.071Z,97839.50
2023-03-27T11:00:19.964Z,97842.28
2023-03-27T11:01:39.462Z,97843.22
2023-03-27T11:02:57.532Z,97835.78
2023-03-27T11:04:08.268Z,97841.19
2023-03-27T11:05:23.547Z,97849.50
2023-03-27T11:06:32.453Z,97848.47
2023-03-27T11:07:55.688Z,97849.47
2023-03-27T11:09:20.376Z,97844.84
2023-03-27T11:10:30.490Z,97847.62
2023-03-27T11:11:58.536Z,97846.78
2023-03-27T11:13:23.944Z,97844.50
2023-03-27T11:14:35.647Z,97846.41
2023-03-27T11:15:44.282Z,97847.72
2023-03-27T11:16:55.662Z,97851.25
2023-03-27T11:18:27.715Z,97851.22
2023-03-27T11:19:43.123Z,97856.12
2023-03-27T11:20:51.912Z,97859.47
2023-03-27T11:22:17.186Z,97864.50
2023-03-27T11:23:44.651Z,97862.94
2023-03-27T11:24:57.009Z,97864.44
2023-03-27T11:26:03.138Z,97872.81
2023-03-27T11:27:38.429Z,97866.47
2023-03-27T11:28:47.075Z,97870.38
2023-03-27T11:29:59.936Z,97874.53
2023-03-27T11:31:44.182Z,97868.31
2023-03-27T11:33:09.664Z,97864.75
2023-03-27T11:34:31.096Z,97859.03
2023-03-27T11:35:43.757Z,97868.25
2023-03-27T11:37:01.636Z,97867.97
2023-03-27T11:38:16.446Z,97871.69
2023-03-27T11:39:51.677Z,97871.31
2023-03-27T11:40:53.654Z,97876.69
2023-03-27T11:42:02.572Z,97877.25
2023-03-27T11:43:05.161Z,97879.97
2023-03-27T11:44:10.688Z,97878.47
2023-03-27T11:45:19.045Z,97876.84
2023-03-27T11:46:51.375Z,97880.94
2023-03-27T11:48:05.586Z,97881.03
2023-03-27T11:49:27.593Z,97879.41
2023-03-27T11:50:34.778Z,97881.25
2023-03-27T11:51:41.777Z,97880.78
2023-03-27T11:52:46.799Z,97874.53
2023-03-27T11:54:03.516Z,97885.69
2023-03-27T11:55:41.032Z,97874.34
2023-03-27T11:56:48.721Z,97888.88
2023-03-27T11:58:03.255Z,97884.78
2023-03-27T11:59:11.091Z,97893.19
2023-03-27T12:00:34.089Z,97885.69
2023-03-27T12:01:44.922Z,97892.28
2023-03-27T12:03:33.684Z,97892.06
2023-03-27T12:04:43.157Z,97899.25
2023-03-27T12:06:02.049Z,97896.47
2023-03-27T12:07:05.357Z,97904.31
2023-03-27T12:08:14.136Z,97908.16
2023-03-27T12:09:43.670Z,97898.09
2023-03-27T12:10:51.125Z,97907.56
2023-03-27T12:12:30.085Z,97905.84
2023-03-27T12:14:00.533Z,97898.56
2023-03-27T12:15:29.861Z,97903.72
2023-03-27T12:17:12.490Z,97905.37
2023-03-27T12:18:41.370Z,97908.34
2023-03-27T12:19:50.857Z,97918.50
2023-03-27T12:21:13.775Z,97923.47
2023-03-27T12:22:58.454Z,97915.56
2023-03-27T12:24:29.809Z,97924.44
2023-03-27T12:26:09.906Z,97916.66
2023-03-27T12:27:26.158Z,97922.53
2023-03-27T12:28:49.934Z,97923.34
2023-03-27T12:30:27.372Z,97928.41
2023-03-27T12:32:08.759Z,97929.97
2023-03-27T12:33:39.479Z,97925.25
2023-03-27T12:34:50.110Z,97925.53
2023-03-27T12:35:57.658Z,97923.28
2023-03-27T12:37:01.852Z,97929.78
2023-03-27T12:38:08.411Z,97935.28
2023-03-27T12:39:26.711Z,97930.56
2023-03-27T12:40:31.298Z,97926.41
2023-03-27T12:41:43.131Z,97925.34
2023-03-27T12:42:49.044Z,97919.84
2023-03-27T12:43:59.731Z,97936.37
2023-03-27T12:45:23.525Z,97926.13
2023-03-27T12:46:28.888Z,97931.34
2023-03-27T12:47:31.105Z,97930.56
2023-03-27T12:48:48.505Z,97931.94
2023-03-27T12:50:18.083Z,97945.00
2023-03-27T12:51:47.533Z,97946.09
2023-03-27T12:52:53.190Z,97946.56
2023-03-27T12:53:56.407Z,97940.00
2023-03-27T12:55:13.834Z,97950.13
2023-03-27T12:56:17.122Z,97938.62
2023-03-27T12:57:22.453Z,97946.47
2023-03-27T12:58:35.108Z,97946.09
2023-03-27T12:59:53.753Z,97947.16
2023-03-27T13:01:00.189Z,97947.16
2023-03-27T13:02:06.295Z,97954.00
2023-03-27T13:03:51.815Z,97953.50
2023-03-27T13:05:24.165Z,97960.16
2023-03-27T13:06:47.139Z,97963.00
2023-03-27T13:08:12.279Z,97969.81
2023-03-27T13:09:35.391Z,97968.53
2023-03-27T13:11:08.959Z,97965.03
2023-03-27T13:12:23.085Z,97975.38
2023-03-27T13:14:11.513Z,97968.03
2023-03-27T13:15:53.591Z,97978.22
2023-03-27T13:17:20.984Z,97989.22
2023-03-27T13:18:59.044Z,97982.06
2023-03-27T13:20:39.217Z,97987.84
2023-03-27T13:21:51.272Z,97987.63
2023-03-27T13:23:08.340Z,97999.19
2023-03-27T13:24:23.644Z,97993.25
2023-03-27T13:26:00.853Z,98001.00
2023-03-27T13:27:28.862Z,97993.38
2023-03-27T13:28:40.138Z,98007.72
2023-03-27T13:29:47.979Z,98010.81
2023-03-27T13:30:53.172Z,98014.03
2023-03-27T13:32:16.627Z,98011.09
2023-03-27T13:33:30.106Z,98018.22
2023-03-27T13:34:41.588Z,98014.22
2023-03-27T13:35:52.758Z,98020.69
2023-03-27T13:37:07.474Z,98025.78